createdAt,value
2018-04-11T00:03:00.617Z,10.73
2018-04-11T00:06:04.009Z,10.78
2018-04-11T00:09:07.298Z,10.78
2018-04-11T00:12:10.520Z,10.79
2018-04-11T00:15:13.884Z,10.75
2018-04-11T00:18:17.205Z,10.73
2018-04-11T00:21:20.499Z,10.73
2018-04-11T00:24:23.832Z,10.75
2018-04-11T00:27:27.124Z,10.76
2018-04-11T00:30:30.313Z,10.80
2018-04-11T00:33:33.609Z,10.75
2018-04-11T00:36:36.985Z,10.65
2018-04-11T00:39:40.302Z,10.66
2018-04-11T00:42:43.507Z,10.66
2018-04-11T00:45:46.850Z,10.69
2018-04-11T00:48:50.112Z,10.60
2018-04-11T00:51:53.348Z,10.51
2018-04-11T00:54:56.633Z,10.41
2018-04-11T00:57:59.916Z,10.38
2018-04-11T01:01:03.284Z,10.41
2018-04-11T01:04:06.661Z,10.46
2018-04-11T01:07:10.385Z,10.41
2018-04-11T01:10:13.655Z,10.33
2018-04-11T01:13:16.884Z,10.28
2018-04-11T01:16:20.292Z,10.21
2018-04-11T01:19:23.544Z,10.23
2018-04-11T01:22:26.792Z,10.24
2018-04-11T01:25:30.068Z,10.25
2018-04-11T01:28:33.326Z,10.27
2018-04-11T01:31:36.632Z,10.24
2018-04-11T01:34:39.768Z,10.14
2018-04-11T01:37:43.116Z,10.13
2018-04-11T01:40:46.356Z,10.08
2018-04-11T01:43:49.659Z,10.09
2018-04-11T01:46:52.982Z,10.05
2018-04-11T01:49:56.241Z,10.00
2018-04-11T01:52:59.538Z,9.94
2018-04-11T01:56:02.712Z,9.94
2018-04-11T01:59:06.123Z,9.89
2018-04-11T02:02:09.500Z,9.80
2018-04-11T02:05:12.833Z,9.78
2018-04-11T02:08:16.100Z,9.73
2018-04-11T02:11:19.473Z,9.70
2018-04-11T02:14:22.707Z,9.66
2018-04-11T02:17:25.995Z,9.62
2018-04-11T02:20:29.260Z,9.59
2018-04-11T02:23:32.597Z,9.60
2018-04-11T02:26:35.883Z,9.54
2018-04-11T02:29:39.129Z,9.49
2018-04-11T02:32:42.480Z,9.47
2018-04-11T02:35:45.699Z,9.48
2018-04-11T02:38:48.925Z,9.52
2018-04-11T02:41:52.230Z,9.58
2018-04-11T02:44:55.563Z,9.65
2018-04-11T02:47:58.802Z,9.59
2018-04-11T02:51:02.206Z,9.58
2018-04-11T02:54:05.519Z,9.58
2018-04-11T02:57:08.861Z,9.57
2018-04-11T03:00:12.108Z,9.49
2018-04-11T03:03:15.539Z,9.44
2018-04-11T03:06:18.953Z,9.44
2018-04-11T03:09:22.277Z,9.45
2018-04-11T03:12:25.543Z,9.41
2018-04-11T03:15:28.868Z,9.43
2018-04-11T03:18:32.159Z,9.48
2018-04-11T03:21:35.539Z,9.50
2018-04-11T03:24:38.675Z,9.46
2018-04-11T03:27:41.931Z,9.46
2018-04-11T03:30:45.336Z,9.45
2018-04-11T03:33:48.817Z,9.38
2018-04-11T03:36:52.145Z,9.39
2018-04-11T03:39:55.548Z,9.28
2018-04-11T03:42:58.944Z,9.20
2018-04-11T03:46:02.265Z,9.11
2018-04-11T03:49:05.943Z,9.14
2018-04-11T03:52:09.276Z,9.10
2018-04-11T03:55:12.555Z,9.08
2018-04-11T03:58:15.897Z,9.08
2018-04-11T04:01:19.201Z,8.96
2018-04-11T04:04:22.568Z,8.91
2018-04-11T04:07:25.828Z,8.91
2018-04-11T04:10:29.121Z,8.88
2018-04-11T04:13:41.348Z,8.80
2018-04-11T04:16:55.912Z,8.80
2018-04-11T04:20:07.948Z,8.71
2018-04-11T04:23:11.244Z,8.62
2018-04-11T04:26:14.502Z,8.60
2018-04-11T04:29:17.736Z,8.58
2018-04-11T04:32:20.937Z,8.51
2018-04-11T04:35:24.180Z,8.43
2018-04-11T04:38:27.603Z,8.40
2018-04-11T04:41:32.268Z,8.39
2018-04-11T04:44:35.599Z,8.28
2018-04-11T04:47:38.764Z,8.22
2018-04-11T04:50:42.103Z,8.13
2018-04-11T04:53:45.383Z,8.16
2018-04-11T04:56:50.744Z,8.10
2018-04-11T04:59:54.135Z,8.06
2018-04-11T05:02:57.440Z,8.02
2018-04-11T05:06:00.741Z,7.97
2018-04-11T05:09:04.191Z,8.00
2018-04-11T05:12:07.348Z,7.97
2018-04-11T05:15:10.653Z,7.97
2018-04-11T05:18:14.060Z,8.06
2018-04-11T05:21:17.426Z,8.13
2018-04-11T05:24:20.741Z,8.12
2018-04-11T05:27:24.104Z,8.09
2018-04-11T05:30:27.452Z,8.13
2018-04-11T05:33:30.747Z,8.22
2018-04-11T05:36:34.136Z,8.26
2018-04-11T05:39:37.480Z,8.27
2018-04-11T05:42:40.659Z,8.37
2018-04-11T05:45:43.886Z,8.45
2018-04-11T05:48:47.214Z,8.50
2018-04-11T05:51:50.555Z,8.58
2018-04-11T05:54:53.813Z,8.68
2018-04-11T05:57:57.051Z,8.73
2018-04-11T06:01:00.408Z,8.82
2018-04-11T06:04:03.652Z,8.92
2018-04-11T06:07:07.030Z,9.00
2018-04-11T06:10:10.354Z,9.05
2018-04-11T06:13:13.492Z,9.11
2018-04-11T06:16:16.892Z,9.22
2018-04-11T06:19:20.221Z,9.20
2018-04-11T06:22:23.494Z,9.32
2018-04-11T06:25:27.795Z,9.41
2018-04-11T06:28:30.946Z,9.52
2018-04-11T06:31:34.214Z,9.67
2018-04-11T06:34:37.497Z,9.77
2018-04-11T06:37:40.828Z,9.83
2018-04-11T06:40:44.110Z,9.85
2018-04-11T06:43:47.306Z,10.01
2018-04-11T06:46:50.691Z,10.06
2018-04-11T06:49:53.984Z,10.22
2018-04-11T06:52:57.220Z,10.28
2018-04-11T06:56:00.584Z,10.44
2018-04-11T06:59:03.893Z,10.48
2018-04-11T07:02:07.148Z,10.56
2018-04-11T07:05:10.732Z,10.56
2018-04-11T07:08:13.988Z,10.69
2018-04-11T07:11:17.157Z,10.77
2018-04-11T07:14:20.556Z,10.78
2018-04-11T07:17:23.780Z,10.96
2018-04-11T07:20:27.013Z,11.08
2018-04-11T07:23:30.351Z,11.22
2018-04-11T07:26:33.684Z,11.23
2018-04-11T07:29:36.959Z,11.27
2018-04-11T07:32:40.235Z,11.28
2018-04-11T07:35:43.437Z,11.32
2018-04-11T07:38:46.724Z,11.51
2018-04-11T07:41:49.945Z,11.65
2018-04-11T07:44:53.106Z,11.78
2018-04-11T07:47:56.319Z,11.94
2018-04-11T07:50:59.456Z,12.06
2018-04-11T07:54:02.692Z,12.14
2018-04-11T07:57:05.903Z,12.16
2018-04-11T08:00:09.118Z,12.19
2018-04-11T08:03:12.267Z,12.20
2018-04-11T08:06:15.347Z,12.32
2018-04-11T08:09:18.587Z,12.53
2018-04-11T08:12:21.808Z,12.52
2018-04-11T08:15:25.061Z,12.44
2018-04-11T08:18:28.201Z,12.48
2018-04-11T08:21:31.455Z,12.13
2018-04-11T08:24:34.743Z,12.35
2018-04-11T08:27:37.984Z,12.67
2018-04-11T08:30:41.272Z,12.48
2018-04-11T08:33:44.658Z,12.63
2018-04-11T08:36:47.841Z,12.92
2018-04-11T08:39:51.077Z,13.12
2018-04-11T08:42:54.379Z,13.34
2018-04-11T08:45:57.742Z,13.59
2018-04-11T08:49:00.972Z,13.56
2018-04-11T08:52:04.320Z,12.99
2018-04-11T08:55:07.524Z,13.11
2018-04-11T08:58:10.633Z,12.97
2018-04-11T09:01:14.012Z,12.91
2018-04-11T09:04:17.324Z,13.23
2018-04-11T09:07:20.597Z,13.18
2018-04-11T09:10:23.807Z,13.13
2018-04-11T09:13:27.278Z,13.02
2018-04-11T09:16:30.522Z,13.55
2018-04-11T09:19:33.739Z,14.12
2018-04-11T09:22:36.919Z,14.13
2018-04-11T09:25:40.185Z,13.98
2018-04-11T09:28:43.512Z,14.18
2018-04-11T09:31:46.897Z,13.87
2018-04-11T09:34:50.260Z,13.95
2018-04-11T09:37:53.580Z,14.18
2018-04-11T09:40:56.715Z,14.41
2018-04-11T09:43:59.879Z,14.27
2018-04-11T09:47:03.185Z,14.31
2018-04-11T09:50:06.639Z,14.85
2018-04-11T09:53:09.867Z,15.34
2018-04-11T09:56:13.164Z,15.35
2018-04-11T09:59:16.404Z,15.41
2018-04-11T10:02:24.028Z,15.63
2018-04-11T10:05:27.276Z,15.35
2018-04-11T10:08:30.666Z,15.19
2018-04-11T10:11:33.864Z,15.49
2018-04-11T10:14:37.063Z,15.40
2018-04-11T10:17:40.441Z,15.53
2018-04-11T10:20:43.659Z,15.33
2018-04-11T10:23:47.899Z,15.58
2018-04-11T10:26:51.260Z,15.91
2018-04-11T10:29:54.544Z,16.52
2018-04-11T10:32:57.740Z,16.85
2018-04-11T10:36:01.065Z,16.51
2018-04-11T10:39:05.239Z,16.33
2018-04-11T10:42:08.492Z,16.06
2018-04-11T10:45:11.696Z,16.22
2018-04-11T10:48:14.995Z,16.19
2018-04-11T10:51:18.295Z,16.67
2018-04-11T10:54:21.524Z,17.24
2018-04-11T10:57:24.659Z,17.23
2018-04-11T11:00:27.864Z,17.59
2018-04-11T11:03:31.163Z,17.74
2018-04-11T11:06:34.529Z,17.98
2018-04-11T11:09:37.844Z,18.07
2018-04-11T11:12:41.108Z,17.39
2018-04-11T11:15:44.365Z,17.53
2018-04-11T11:18:47.735Z,17.93
2018-04-11T11:21:50.944Z,17.89
2018-04-11T11:24:54.132Z,17.94
2018-04-11T11:27:57.551Z,18.33
2018-04-11T11:31:00.812Z,18.45
2018-04-11T11:34:04.185Z,18.37
2018-04-11T11:37:07.541Z,18.06
2018-04-11T11:40:10.800Z,18.15
2018-04-11T11:43:14.213Z,18.13
2018-04-11T11:46:17.515Z,18.20
2018-04-11T11:49:21.815Z,18.40
2018-04-11T11:52:25.003Z,18.53
2018-04-11T11:55:28.212Z,18.83
2018-04-11T11:58:31.432Z,18.44
2018-04-11T12:01:34.653Z,18.56
2018-04-11T12:04:37.890Z,18.89
2018-04-11T12:07:41.100Z,19.22
2018-04-11T12:10:44.391Z,18.89
2018-04-11T12:13:47.684Z,19.14
2018-04-11T12:16:50.989Z,18.96
2018-04-11T12:19:54.199Z,18.86
2018-04-11T12:22:57.486Z,19.14
2018-04-11T12:26:00.806Z,19.53
2018-04-11T12:29:05.129Z,19.73
2018-04-11T12:32:08.479Z,19.93
2018-04-11T12:35:11.584Z,20.21
2018-04-11T12:38:14.871Z,20.45
2018-04-11T12:41:18.016Z,20.47
2018-04-11T12:44:21.271Z,20.06
2018-04-11T12:47:24.380Z,20.30
2018-04-11T12:50:27.679Z,20.31
2018-04-11T12:53:30.915Z,20.05
2018-04-11T12:56:34.147Z,19.92
2018-04-11T12:59:37.447Z,20.06
2018-04-11T13:02:40.668Z,20.01
2018-04-11T13:05:43.955Z,20.42
2018-04-11T13:08:47.173Z,20.07
2018-04-11T13:11:50.375Z,19.97
2018-04-11T13:14:54.120Z,20.29
2018-04-11T13:17:57.486Z,20.89
2018-04-11T13:21:00.740Z,21.09
2018-04-11T13:24:04.058Z,21.37
2018-04-11T13:27:07.297Z,21.47
2018-04-11T13:30:10.724Z,21.70
2018-04-11T13:33:13.834Z,21.75
2018-04-11T13:36:17.145Z,21.91
2018-04-11T13:39:20.716Z,21.94
2018-04-11T13:42:24.096Z,22.24
2018-04-11T13:45:27.428Z,22.36
2018-04-11T13:48:30.655Z,22.55
2018-04-11T13:51:34.093Z,22.52
2018-04-11T13:54:37.160Z,22.50
2018-04-11T13:57:40.423Z,22.57
2018-04-11T14:00:43.803Z,22.42
2018-04-11T14:03:47.004Z,22.80
2018-04-11T14:06:50.389Z,23.02
2018-04-11T14:09:53.730Z,23.04
2018-04-11T14:12:57.520Z,23.01
2018-04-11T14:16:00.757Z,22.77
2018-04-11T14:19:03.916Z,22.85
2018-04-11T14:22:07.294Z,23.14
2018-04-11T14:25:10.498Z,23.46
2018-04-11T14:28:14.057Z,23.53
2018-04-11T14:31:17.388Z,23.17
2018-04-11T14:34:20.725Z,23.11
2018-04-11T14:37:24.010Z,22.92
2018-04-11T14:40:27.272Z,22.72
2018-04-11T14:43:30.505Z,22.96
2018-04-11T14:46:33.825Z,23.22
2018-04-11T14:49:37.078Z,23.39
2018-04-11T14:52:40.238Z,23.15
2018-04-11T14:55:43.496Z,23.23
2018-04-11T14:58:46.756Z,23.42
2018-04-11T15:01:50.100Z,23.56
2018-04-11T15:04:53.378Z,23.39
2018-04-11T15:07:56.540Z,23.50
2018-04-11T15:10:59.877Z,23.68
2018-04-11T15:14:03.164Z,23.75
2018-04-11T15:17:06.413Z,23.55
2018-04-11T15:20:09.673Z,23.67
2018-04-11T15:23:12.955Z,23.46
2018-04-11T15:26:16.218Z,23.46
2018-04-11T15:29:19.476Z,22.87
2018-04-11T15:32:22.750Z,22.64
2018-04-11T15:35:26.034Z,23.13
2018-04-11T15:38:29.266Z,23.21
2018-04-11T15:41:32.581Z,23.07
2018-04-11T15:44:35.728Z,23.25
2018-04-11T15:47:39.034Z,23.17
2018-04-11T15:50:42.277Z,23.27
2018-04-11T15:53:45.540Z,23.45
2018-04-11T15:56:49.524Z,23.31
2018-04-11T15:59:52.667Z,23.28
2018-04-11T16:02:56.148Z,23.42
2018-04-11T16:06:00.353Z,23.62
2018-04-11T16:09:03.900Z,23.73
2018-04-11T16:12:07.301Z,23.41
2018-04-11T16:15:10.847Z,23.53
2018-04-11T16:18:16.171Z,23.42
2018-04-11T16:21:19.315Z,23.50
2018-04-11T16:24:22.699Z,23.55
2018-04-11T16:27:25.983Z,23.17
2018-04-11T16:30:29.247Z,22.75
2018-04-11T16:33:32.516Z,22.47
2018-04-11T16:36:37.659Z,22.25
2018-04-11T16:39:41.264Z,22.05
2018-04-11T16:42:44.678Z,21.83
2018-04-11T16:45:48.117Z,21.70
2018-04-11T16:48:51.479Z,21.51
2018-04-11T16:51:54.643Z,21.41
2018-04-11T16:54:58.020Z,21.12
2018-04-11T16:58:01.261Z,20.96
2018-04-11T17:01:04.639Z,20.95
2018-04-11T17:04:07.851Z,20.96
2018-04-11T17:07:11.124Z,20.67
2018-04-11T17:10:14.523Z,20.49
2018-04-11T17:13:17.844Z,20.50
2018-04-11T17:16:21.714Z,20.36
2018-04-11T17:19:25.060Z,20.24
2018-04-11T17:24:40.957Z,20.11
2018-04-11T17:27:55.635Z,20.01
2018-04-11T17:31:03.662Z,19.73
2018-04-11T17:34:06.944Z,19.61
2018-04-11T17:37:10.241Z,19.55
2018-04-11T17:40:13.538Z,19.55
2018-04-11T17:43:16.905Z,19.45
2018-04-11T17:46:20.200Z,19.31
2018-04-11T17:49:23.590Z,19.21
2018-04-11T17:52:26.778Z,19.09
2018-04-11T17:55:30.024Z,18.93
2018-04-11T17:58:33.396Z,18.90
2018-04-11T18:01:36.782Z,18.87
2018-04-11T18:04:40.058Z,18.80
2018-04-11T18:07:43.389Z,18.83
2018-04-11T18:10:46.780Z,18.71
2018-04-11T18:13:50.043Z,18.57
2018-04-11T18:16:53.444Z,18.54
2018-04-11T18:19:56.804Z,18.43
2018-04-11T18:23:00.140Z,18.37
2018-04-11T18:26:03.556Z,18.26
2018-04-11T18:29:06.931Z,18.16
2018-04-11T18:32:11.276Z,18.09
2018-04-11T18:35:14.477Z,18.03
2018-04-11T18:38:17.899Z,18.00
2018-04-11T18:41:21.209Z,17.93
2018-04-11T18:44:24.522Z,17.91
2018-04-11T18:47:28.776Z,17.85
2018-04-11T18:50:32.034Z,17.79
2018-04-11T18:53:35.372Z,17.75
2018-04-11T18:56:38.834Z,17.71
2018-04-11T18:59:42.216Z,17.63
2018-04-11T19:02:45.568Z,17.63
2018-04-11T19:05:48.860Z,17.65
2018-04-11T19:08:52.161Z,17.61
2018-04-11T19:11:55.460Z,17.54
2018-04-11T19:14:58.695Z,17.41
2018-04-11T19:18:02.132Z,17.40
2018-04-11T19:21:05.472Z,17.38
2018-04-11T19:24:08.933Z,17.35
2018-04-11T19:27:12.137Z,17.27
2018-04-11T19:30:15.470Z,17.25
2018-04-11T19:33:18.899Z,17.28
2018-04-11T19:36:22.273Z,17.19
2018-04-11T19:39:25.676Z,17.12
2018-04-11T19:42:28.821Z,17.15
2018-04-11T19:45:32.264Z,17.15
2018-04-11T19:48:35.550Z,17.15
2018-04-11T19:51:38.780Z,17.14
2018-04-11T19:54:41.968Z,17.13
2018-04-11T19:57:45.275Z,17.08
2018-04-11T20:00:48.844Z,17.03
2018-04-11T20:03:52.061Z,17.01
2018-04-11T20:06:55.496Z,17.00
2018-04-11T20:09:58.760Z,16.97
2018-04-11T20:13:02.027Z,16.93
2018-04-11T20:16:05.263Z,16.96
2018-04-11T20:19:08.551Z,16.89
2018-04-11T20:22:11.856Z,16.90
2018-04-11T20:25:15.169Z,16.88
2018-04-11T20:28:18.579Z,16.73
2018-04-11T20:31:21.951Z,16.71
2018-04-11T20:34:25.251Z,16.65
2018-04-11T20:37:28.516Z,16.68
2018-04-11T20:40:31.761Z,16.64
2018-04-11T20:43:35.244Z,16.64
2018-04-11T20:46:38.525Z,16.62
2018-04-11T20:49:41.815Z,16.57
2018-04-11T20:52:45.057Z,16.54
2018-04-11T20:55:48.388Z,16.45
2018-04-11T20:58:52.223Z,16.43
2018-04-11T21:01:55.647Z,16.40
2018-04-11T21:04:59.034Z,16.40
2018-04-11T21:08:02.232Z,16.38
2018-04-11T21:11:05.521Z,16.36
2018-04-11T21:14:08.897Z,16.32
2018-04-11T21:17:12.196Z,16.30
2018-04-11T21:20:15.382Z,16.26
2018-04-11T21:23:18.772Z,16.25
2018-04-11T21:26:22.094Z,16.29
2018-04-11T21:29:25.292Z,16.23
2018-04-11T21:32:28.676Z,16.17
2018-04-11T21:35:31.977Z,16.08
2018-04-11T21:38:35.314Z,16.13
2018-04-11T21:41:38.557Z,16.06
2018-04-11T21:44:41.831Z,16.04
2018-04-11T21:47:45.146Z,16.01
2018-04-11T21:50:48.496Z,16.03
2018-04-11T21:53:51.800Z,16.03
2018-04-11T21:56:55.009Z,16.00
2018-04-11T21:59:58.251Z,16.01
2018-04-11T22:03:01.888Z,15.99
2018-04-11T22:06:05.436Z,15.96
2018-04-11T22:09:08.767Z,15.97
2018-04-11T22:12:12.083Z,15.99
2018-04-11T22:15:15.504Z,15.95
2018-04-11T22:18:18.781Z,15.97
2018-04-11T22:21:22.079Z,15.98
2018-04-11T22:24:25.468Z,15.99
2018-04-11T22:27:28.747Z,16.00
2018-04-11T22:30:32.075Z,15.97
2018-04-11T22:33:35.469Z,15.98
2018-04-11T22:36:38.741Z,16.01
2018-04-11T22:39:42.188Z,15.99
2018-04-11T22:42:45.540Z,15.93
2018-04-11T22:45:48.828Z,15.85
2018-04-11T22:48:52.193Z,15.77
2018-04-11T22:51:55.685Z,15.71
2018-04-11T22:54:59.066Z,15.63
2018-04-11T22:58:02.390Z,15.53
2018-04-11T23:01:05.718Z,15.56
2018-04-11T23:04:09.073Z,15.45
2018-04-11T23:07:12.331Z,15.35
2018-04-11T23:10:15.753Z,15.21
2018-04-11T23:13:19.061Z,15.12
2018-04-11T23:16:22.423Z,15.04
2018-04-11T23:19:25.663Z,14.84
2018-04-11T23:22:29.027Z,14.74
2018-04-11T23:25:32.315Z,14.75
2018-04-11T23:28:35.714Z,14.70
2018-04-11T23:31:38.940Z,14.73
2018-04-11T23:34:42.363Z,14.73
2018-04-11T23:37:46.528Z,14.77
2018-04-11T23:40:49.756Z,14.76
2018-04-11T23:43:52.972Z,14.82
2018-04-11T23:46:56.180Z,14.89
2018-04-11T23:50:00.735Z,15.00
2018-04-11T23:53:03.938Z,15.06
2018-04-11T23:56:07.233Z,15.12
2018-04-11T23:59:10.555Z,15.13
